createdAt,value
2022-08-30T00:01:29.541Z,73.58
2022-08-30T00:04:01.865Z,73.57
2022-08-30T00:06:33.263Z,73.66
2022-08-30T00:09:04.664Z,73.47
2022-08-30T00:11:35.951Z,73.14
2022-08-30T00:14:07.251Z,73.43
2022-08-30T00:16:38.557Z,73.48
2022-08-30T00:19:09.910Z,73.10
2022-08-30T00:21:41.277Z,73.17
2022-08-30T00:24:12.701Z,73.06
2022-08-30T00:26:44.022Z,73.62
2022-08-30T00:29:15.340Z,73.21
2022-08-30T00:31:46.735Z,73.24
2022-08-30T00:34:18.271Z,73.24
2022-08-30T00:36:49.641Z,73.04
2022-08-30T00:39:20.976Z,72.88
2022-08-30T00:41:52.295Z,72.83
2022-08-30T00:44:24.172Z,72.70
2022-08-30T00:46:55.487Z,72.80
2022-08-30T00:49:28.178Z,72.46
2022-08-30T00:52:00.960Z,72.85
2022-08-30T00:54:33.998Z,72.80
2022-08-30T00:57:05.786Z,72.81
2022-08-30T00:59:38.274Z,72.72
2022-08-30T01:02:10.319Z,72.96
2022-08-30T01:04:43.038Z,72.56
2022-08-30T01:07:15.510Z,72.81
2022-08-30T01:09:47.042Z,72.63
2022-08-30T01:12:18.765Z,72.73
2022-08-30T01:14:50.422Z,72.53
2022-08-30T01:17:24.398Z,72.50
2022-08-30T01:20:00.689Z,72.46
2022-08-30T01:22:44.185Z,72.47
2022-08-30T01:25:27.454Z,72.34
2022-08-30T01:28:04.253Z,72.19
2022-08-30T01:30:39.063Z,72.47
2022-08-30T01:33:12.139Z,72.52
2022-08-30T01:35:52.398Z,72.47
2022-08-30T01:38:27.861Z,72.58
2022-08-30T01:41:13.412Z,72.69
2022-08-30T01:43:45.746Z,72.51
2022-08-30T01:46:19.257Z,72.54
2022-08-30T01:48:53.908Z,72.71
2022-08-30T01:51:28.310Z,72.37
2022-08-30T01:53:59.844Z,72.49
2022-08-30T01:56:31.661Z,72.56
2022-08-30T01:59:04.371Z,72.47
2022-08-30T02:01:36.992Z,72.67
2022-08-30T02:04:11.741Z,72.77
2022-08-30T02:06:44.310Z,72.96
2022-08-30T02:09:15.610Z,72.41
2022-08-30T02:11:48.280Z,72.69
2022-08-30T02:14:21.125Z,72.39
2022-08-30T02:16:52.841Z,72.44
2022-08-30T02:19:24.395Z,72.57
2022-08-30T02:21:55.750Z,72.71
2022-08-30T02:24:27.176Z,72.63
2022-08-30T02:26:58.606Z,72.65
2022-08-30T02:29:29.945Z,72.69
2022-08-30T02:32:01.295Z,72.89
2022-08-30T02:34:32.848Z,72.73
2022-08-30T02:37:04.893Z,72.48
2022-08-30T02:39:36.569Z,72.55
2022-08-30T02:42:08.217Z,72.39
2022-08-30T02:44:39.541Z,72.42
2022-08-30T02:47:10.850Z,72.16
2022-08-30T02:49:42.160Z,72.14
2022-08-30T02:52:13.612Z,72.24
2022-08-30T02:54:45.049Z,72.49
2022-08-30T02:57:20.456Z,72.53
2022-08-30T02:59:52.279Z,72.27
2022-08-30T03:02:23.695Z,72.29
2022-08-30T03:04:55.407Z,72.57
2022-08-30T03:07:26.879Z,72.55
2022-08-30T03:09:58.356Z,72.53
2022-08-30T03:12:29.729Z,72.22
2022-08-30T03:15:02.692Z,72.41
2022-08-30T03:17:34.344Z,72.61
2022-08-30T03:20:06.815Z,72.55
2022-08-30T03:22:38.366Z,72.47
2022-08-30T03:25:09.893Z,72.48
2022-08-30T03:27:41.333Z,72.17
2022-08-30T03:30:13.320Z,72.53
2022-08-30T03:32:44.988Z,72.57
2022-08-30T03:35:18.040Z,72.24
2022-08-30T03:37:49.560Z,72.46
2022-08-30T03:40:27.943Z,72.32
2022-08-30T03:42:59.306Z,71.96
2022-08-30T03:45:31.118Z,72.26
2022-08-30T03:48:02.917Z,71.94
2022-08-30T03:50:35.661Z,71.87
2022-08-30T03:53:07.460Z,72.11
2022-08-30T03:55:38.807Z,71.99
2022-08-30T03:58:10.481Z,71.95
2022-08-30T04:00:41.907Z,71.98
2022-08-30T04:03:13.944Z,71.92
2022-08-30T04:05:45.320Z,71.85
2022-08-30T04:08:16.610Z,71.48
2022-08-30T04:10:48.311Z,71.78
2022-08-30T04:13:21.445Z,71.67
2022-08-30T04:15:52.846Z,71.83
2022-08-30T04:18:24.214Z,71.93
2022-08-30T04:20:55.874Z,71.65
2022-08-30T04:23:28.430Z,71.79
2022-08-30T04:25:59.984Z,71.85
2022-08-30T04:28:31.448Z,71.95
2022-08-30T04:31:15.456Z,71.83
2022-08-30T04:33:46.953Z,71.89
2022-08-30T04:36:18.296Z,71.91
2022-08-30T04:38:49.610Z,71.71
2022-08-30T04:41:24.267Z,71.81
2022-08-30T04:43:55.673Z,71.83
2022-08-30T04:46:26.957Z,71.48
2022-08-30T04:48:58.257Z,71.83
2022-08-30T04:51:29.595Z,71.87
2022-08-30T04:54:01.085Z,71.69
2022-08-30T04:56:32.911Z,71.78
2022-08-30T04:59:04.421Z,71.84
2022-08-30T05:01:44.674Z,71.77
2022-08-30T05:04:17.102Z,71.43
2022-08-30T05:06:49.100Z,71.49
2022-08-30T05:09:21.560Z,71.65
2022-08-30T05:11:53.361Z,71.51
2022-08-30T05:14:24.955Z,71.73
2022-08-30T05:16:56.244Z,71.63
2022-08-30T05:19:27.806Z,71.89
2022-08-30T05:21:59.788Z,71.75
2022-08-30T05:24:32.036Z,71.47
2022-08-30T05:27:03.850Z,71.74
2022-08-30T05:29:35.175Z,71.52
2022-08-30T05:32:08.362Z,71.76
2022-08-30T05:34:39.696Z,72.00
2022-08-30T05:37:11.065Z,72.05
2022-08-30T05:39:45.088Z,72.44
2022-08-30T05:42:22.901Z,71.93
2022-08-30T05:44:54.785Z,71.99
2022-08-30T05:47:26.092Z,71.99
2022-08-30T05:49:57.402Z,71.73
2022-08-30T05:52:28.727Z,72.03
2022-08-30T05:55:00.133Z,72.16
2022-08-30T05:57:33.797Z,72.09
2022-08-30T06:00:14.389Z,72.12
2022-08-30T06:02:45.923Z,72.00
2022-08-30T06:05:17.273Z,71.68
2022-08-30T06:07:49.283Z,71.94
2022-08-30T06:10:20.582Z,71.94
2022-08-30T06:12:51.871Z,71.99
2022-08-30T06:15:23.176Z,72.06
2022-08-30T06:17:54.585Z,72.21
2022-08-30T06:20:25.894Z,72.60
2022-08-30T06:22:57.197Z,71.91
2022-08-30T06:25:28.528Z,72.15
2022-08-30T06:28:13.891Z,71.74
2022-08-30T06:30:45.294Z,71.64
2022-08-30T06:33:16.582Z,72.05
2022-08-30T06:35:58.682Z,72.23
2022-08-30T06:38:31.068Z,72.48
2022-08-30T06:41:14.843Z,71.90
2022-08-30T06:43:49.065Z,72.37
2022-08-30T06:46:24.769Z,71.91
2022-08-30T06:48:56.779Z,71.81
2022-08-30T06:51:34.749Z,72.13
2022-08-30T06:54:10.697Z,71.57
2022-08-30T06:56:57.756Z,71.31
2022-08-30T06:59:29.724Z,71.25
2022-08-30T07:02:01.178Z,71.19
2022-08-30T07:04:32.718Z,71.05
2022-08-30T07:07:04.751Z,70.73
2022-08-30T07:09:36.268Z,70.86
2022-08-30T07:12:08.574Z,70.69
2022-08-30T07:14:40.049Z,69.68
2022-08-30T07:17:34.038Z,68.82
2022-08-30T07:20:06.637Z,68.27
2022-08-30T07:22:38.043Z,67.96
2022-08-30T07:25:09.617Z,67.20
2022-08-30T07:27:41.692Z,66.54
2022-08-30T07:30:14.059Z,66.31
2022-08-30T07:32:45.371Z,65.22
2022-08-30T07:35:16.854Z,65.04
2022-08-30T07:37:48.175Z,63.74
2022-08-30T07:40:19.712Z,64.67
2022-08-30T07:42:51.117Z,64.40
2022-08-30T07:45:22.562Z,64.28
2022-08-30T07:47:53.910Z,64.46
2022-08-30T07:50:25.316Z,64.37
2022-08-30T07:52:56.774Z,64.59
2022-08-30T07:55:28.173Z,64.56
2022-08-30T07:57:59.525Z,64.35
2022-08-30T08:00:30.996Z,64.28
2022-08-30T08:03:07.603Z,64.65
2022-08-30T08:05:44.665Z,64.07
2022-08-30T08:08:16.226Z,64.02
2022-08-30T08:10:47.985Z,64.36
2022-08-30T08:13:19.441Z,64.64
2022-08-30T08:15:52.623Z,63.97
2022-08-30T08:18:24.013Z,63.92
2022-08-30T08:20:56.001Z,63.75
2022-08-30T08:23:28.666Z,63.62
2022-08-30T08:26:00.513Z,63.78
2022-08-30T08:28:32.482Z,63.68
2022-08-30T08:31:04.052Z,63.76
2022-08-30T08:33:35.390Z,63.28
2022-08-30T08:36:09.357Z,63.31
2022-08-30T08:38:41.261Z,63.18
2022-08-30T08:41:32.193Z,62.92
2022-08-30T08:44:33.773Z,62.83
2022-08-30T08:47:26.173Z,62.60
2022-08-30T08:50:03.055Z,63.10
2022-08-30T08:53:25.123Z,63.09
2022-08-30T08:56:12.548Z,63.17
2022-08-30T08:58:45.402Z,63.26
2022-08-30T09:01:20.985Z,63.12
2022-08-30T09:03:52.718Z,63.61
2022-08-30T09:06:45.692Z,63.80
2022-08-30T09:09:25.469Z,63.60
2022-08-30T09:11:57.142Z,63.74
2022-08-30T09:14:34.673Z,62.83
2022-08-30T09:17:12.273Z,62.99
2022-08-30T09:20:02.396Z,62.63
2022-08-30T09:22:35.519Z,62.58
2022-08-30T09:25:08.594Z,62.54
2022-08-30T09:27:44.038Z,62.38
2022-08-30T09:30:20.374Z,61.99
2022-08-30T09:32:58.164Z,61.89
2022-08-30T09:35:46.650Z,61.58
2022-08-30T09:38:26.193Z,61.15
2022-08-30T09:40:59.276Z,60.99
2022-08-30T09:43:34.671Z,61.15
2022-08-30T09:46:08.738Z,60.90
2022-08-30T09:48:44.097Z,60.40
2022-08-30T09:51:40.223Z,59.94
2022-08-30T09:54:33.705Z,59.98
2022-08-30T09:57:34.501Z,59.64
2022-08-30T10:00:14.027Z,59.76
2022-08-30T10:03:07.130Z,59.46
2022-08-30T10:05:56.195Z,59.04
2022-08-30T10:08:50.533Z,59.19
2022-08-30T10:11:32.036Z,58.54
2022-08-30T10:14:33.843Z,58.53
2022-08-30T10:17:16.040Z,58.49
2022-08-30T10:20:06.532Z,58.07
2022-08-30T10:22:46.503Z,57.93
2022-08-30T10:25:25.684Z,58.30
2022-08-30T10:28:04.430Z,57.42
2022-08-30T10:30:38.997Z,57.60
2022-08-30T10:33:25.376Z,56.97
2022-08-30T10:36:01.810Z,56.05
2022-08-30T10:38:36.032Z,55.25
2022-08-30T10:41:22.585Z,54.76
2022-08-30T10:44:06.522Z,55.20
2022-08-30T10:47:23.337Z,54.54
2022-08-30T10:50:21.341Z,53.92
2022-08-30T10:53:30.048Z,54.17
2022-08-30T10:56:08.503Z,54.48
2022-08-30T10:58:42.369Z,54.94
2022-08-30T11:01:32.772Z,55.67
2022-08-30T11:04:24.871Z,55.92
2022-08-30T11:07:03.504Z,55.53
2022-08-30T11:09:42.252Z,55.76
2022-08-30T11:12:31.128Z,55.84
2022-08-30T11:15:37.717Z,55.73
2022-08-30T11:18:08.975Z,55.84
2022-08-30T11:20:53.929Z,56.34
2022-08-30T11:23:36.002Z,56.01
2022-08-30T11:26:13.989Z,55.73
2022-08-30T11:28:52.026Z,55.48
2022-08-30T11:31:23.520Z,55.34
2022-08-30T11:33:58.796Z,55.23
2022-08-30T11:36:37.932Z,55.91
2022-08-30T11:39:13.368Z,55.52
2022-08-30T11:41:47.754Z,55.64
2022-08-30T11:44:22.476Z,55.41
2022-08-30T11:46:56.416Z,54.43
2022-08-30T11:49:37.549Z,54.90
2022-08-30T11:52:28.641Z,54.35
2022-08-30T11:55:14.882Z,54.25
2022-08-30T11:58:05.572Z,53.85
2022-08-30T12:00:40.729Z,53.08
2022-08-30T12:03:15.464Z,52.53
2022-08-30T12:05:51.557Z,52.10
2022-08-30T12:08:36.033Z,52.34
2022-08-30T12:11:33.472Z,51.37
2022-08-30T12:14:09.271Z,51.64
2022-08-30T12:17:06.084Z,51.33
2022-08-30T12:19:38.545Z,51.03
2022-08-30T12:22:16.607Z,50.24
2022-08-30T12:24:51.945Z,50.82
2022-08-30T12:27:27.741Z,50.89
2022-08-30T12:30:09.975Z,50.57
2022-08-30T12:32:50.604Z,50.79
2022-08-30T12:35:28.032Z,50.62
2022-08-30T12:38:14.013Z,49.73
2022-08-30T12:40:51.660Z,49.62
2022-08-30T12:43:38.951Z,49.54
2022-08-30T12:46:16.629Z,49.43
2022-08-30T12:48:48.675Z,49.80
2022-08-30T12:51:39.433Z,48.67
2022-08-30T12:54:20.809Z,49.06
2022-08-30T12:57:19.249Z,48.77
2022-08-30T12:59:59.835Z,48.20
2022-08-30T13:02:52.016Z,48.62
2022-08-30T13:05:45.781Z,47.96
2022-08-30T13:08:22.495Z,47.66
2022-08-30T13:11:08.438Z,47.71
2022-08-30T13:13:44.258Z,47.31
2022-08-30T13:16:20.397Z,47.93
2022-08-30T13:18:54.732Z,48.40
2022-08-30T13:21:28.974Z,48.40
2022-08-30T13:24:03.200Z,47.66
2022-08-30T13:26:38.266Z,48.08
2022-08-30T13:29:20.702Z,47.36
2022-08-30T13:31:52.785Z,45.98
2022-08-30T13:34:25.005Z,45.78
2022-08-30T13:36:57.803Z,45.78
2022-08-30T13:39:29.661Z,45.76
2022-08-30T13:44:52.418Z,46.08
2022-08-30T13:47:33.059Z,46.04
2022-08-30T13:50:06.538Z,46.20
2022-08-30T13:52:39.412Z,46.22
2022-08-30T13:55:12.322Z,46.21
2022-08-30T13:57:58.923Z,47.03
2022-08-30T14:00:34.767Z,47.86
2022-08-30T14:03:08.961Z,48.11
2022-08-30T14:05:51.009Z,48.58
2022-08-30T14:08:48.601Z,48.54
2022-08-30T14:11:22.706Z,48.67
2022-08-30T14:16:46.387Z,49.50
2022-08-30T14:19:18.365Z,49.69
2022-08-30T14:21:51.067Z,49.63
2022-08-30T14:24:29.679Z,49.54
2022-08-30T14:27:01.179Z,49.47
2022-08-30T14:29:32.540Z,49.72
2022-08-30T14:32:11.015Z,48.88
2022-08-30T14:34:42.373Z,48.82
2022-08-30T14:37:13.717Z,48.37
2022-08-30T14:39:45.090Z,47.83
2022-08-30T14:42:18.803Z,47.00
2022-08-30T14:44:56.542Z,46.88
2022-08-30T14:47:29.496Z,46.89
2022-08-30T14:50:01.836Z,47.32
2022-08-30T14:52:33.585Z,47.73
2022-08-30T14:55:09.715Z,48.54
2022-08-30T14:57:41.246Z,48.47
2022-08-30T15:00:13.572Z,48.32
2022-08-30T15:02:45.076Z,48.60
2022-08-30T15:05:17.486Z,48.61
2022-08-30T15:07:52.921Z,48.39
2022-08-30T15:10:24.704Z,47.53
2022-08-30T15:12:56.073Z,47.36
2022-08-30T15:15:27.399Z,46.93
2022-08-30T15:17:58.756Z,47.18
2022-08-30T15:20:30.512Z,47.00
2022-08-30T15:23:01.887Z,47.01
2022-08-30T15:25:33.222Z,46.93
2022-08-30T15:28:04.613Z,46.76
2022-08-30T15:30:36.774Z,46.66
2022-08-30T15:33:08.115Z,46.36
2022-08-30T15:35:39.440Z,46.46
2022-08-30T15:38:12.493Z,46.62
2022-08-30T15:40:45.921Z,47.03
2022-08-30T15:43:17.729Z,46.39
2022-08-30T15:45:49.172Z,46.89
2022-08-30T15:48:21.954Z,46.78
2022-08-30T15:50:57.853Z,47.14
2022-08-30T15:53:29.214Z,46.77
2022-08-30T15:56:00.981Z,46.20
2022-08-30T15:58:32.344Z,46.01
2022-08-30T16:01:05.521Z,46.34
2022-08-30T16:03:37.730Z,46.00
2022-08-30T16:06:18.348Z,46.77
2022-08-30T16:08:50.080Z,46.91
2022-08-30T16:11:22.635Z,46.69
2022-08-30T16:13:57.764Z,46.96
2022-08-30T16:16:30.876Z,47.16
2022-08-30T16:19:02.258Z,47.15
2022-08-30T16:21:36.767Z,47.24
2022-08-30T16:24:10.629Z,46.91
2022-08-30T16:26:42.975Z,47.40
2022-08-30T16:29:14.537Z,47.16
2022-08-30T16:31:47.468Z,47.13
2022-08-30T16:34:20.268Z,47.20
2022-08-30T16:36:51.674Z,47.18
2022-08-30T16:39:23.220Z,47.14
2022-08-30T16:41:54.635Z,47.08
2022-08-30T16:44:29.851Z,47.15
2022-08-30T16:47:01.500Z,47.45
2022-08-30T16:49:32.884Z,47.64
2022-08-30T16:52:04.402Z,47.77
2022-08-30T16:54:35.703Z,47.84
2022-08-30T16:57:07.172Z,47.89
2022-08-30T16:59:38.465Z,48.12
2022-08-30T17:02:09.864Z,48.47
2022-08-30T17:04:42.756Z,48.77
2022-08-30T17:07:18.516Z,48.80
2022-08-30T17:09:52.685Z,48.89
2022-08-30T17:12:24.642Z,48.97
2022-08-30T17:14:57.528Z,49.25
2022-08-30T17:17:28.869Z,49.69
2022-08-30T17:20:00.971Z,49.61
2022-08-30T17:22:32.743Z,50.27
2022-08-30T17:25:04.458Z,49.86
2022-08-30T17:27:36.642Z,50.09
2022-08-30T17:30:08.800Z,49.88
2022-08-30T17:32:40.174Z,50.52
2022-08-30T17:35:11.925Z,50.55
2022-08-30T17:37:43.365Z,50.42
2022-08-30T17:40:17.274Z,51.02
2022-08-30T17:42:48.979Z,50.99
2022-08-30T17:45:20.996Z,50.21
2022-08-30T17:47:52.582Z,49.38
2022-08-30T17:50:23.946Z,48.67
2022-08-30T17:52:59.373Z,48.18
2022-08-30T17:55:30.980Z,47.28
2022-08-30T17:58:02.312Z,46.75
2022-08-30T18:00:33.665Z,46.90
2022-08-30T18:03:06.141Z,46.81
2022-08-30T18:05:38.441Z,46.16
2022-08-30T18:08:13.134Z,46.54
2022-08-30T18:10:44.472Z,46.14
2022-08-30T18:13:16.693Z,46.07
2022-08-30T18:15:48.110Z,46.08
2022-08-30T18:18:22.974Z,45.71
2022-08-30T18:20:54.567Z,45.55
2022-08-30T18:23:26.047Z,46.05
2022-08-30T18:26:01.494Z,45.47
2022-08-30T18:28:33.797Z,45.15
2022-08-30T18:31:05.367Z,45.03
2022-08-30T18:33:40.956Z,45.01
2022-08-30T18:36:14.982Z,44.59
2022-08-30T18:38:47.607Z,44.10
2022-08-30T18:41:19.250Z,44.48
2022-08-30T18:44:01.819Z,44.42
2022-08-30T18:46:45.304Z,44.36
2022-08-30T18:49:32.364Z,44.19
2022-08-30T18:52:07.345Z,44.23
2022-08-30T18:54:42.487Z,44.13
2022-08-30T18:57:14.626Z,44.07
2022-08-30T18:59:46.037Z,44.60
2022-08-30T19:02:18.022Z,44.66
2022-08-30T19:04:49.376Z,44.48
2022-08-30T19:07:21.545Z,44.29
2022-08-30T19:09:59.022Z,44.61
2022-08-30T19:12:30.974Z,44.80
2022-08-30T19:15:11.036Z,45.17
2022-08-30T19:17:45.744Z,45.25
2022-08-30T19:20:21.448Z,45.73
2022-08-30T19:23:09.877Z,45.60
2022-08-30T19:25:42.798Z,45.83
2022-08-30T19:28:15.378Z,46.05
2022-08-30T19:30:47.248Z,46.12
2022-08-30T19:33:19.693Z,46.20
2022-08-30T19:35:52.826Z,46.37
2022-08-30T19:38:24.895Z,46.41
2022-08-30T19:40:58.948Z,46.42
2022-08-30T19:43:31.129Z,46.31
2022-08-30T19:46:02.679Z,46.96
2022-08-30T19:48:37.869Z,47.07
2022-08-30T19:51:58.798Z,47.27
2022-08-30T19:54:30.243Z,47.46
2022-08-30T19:57:01.631Z,47.63
2022-08-30T19:59:32.974Z,47.70
2022-08-30T20:02:05.486Z,47.95
2022-08-30T20:04:38.105Z,47.96
2022-08-30T20:07:13.587Z,48.08
2022-08-30T20:09:45.676Z,48.59
2022-08-30T20:12:19.289Z,48.85
2022-08-30T20:14:50.764Z,48.98
2022-08-30T20:17:23.621Z,49.76
2022-08-30T20:19:55.077Z,50.00
2022-08-30T20:22:26.764Z,49.78
2022-08-30T20:24:58.284Z,50.20
2022-08-30T20:27:29.987Z,50.42
2022-08-30T20:30:02.182Z,50.43
2022-08-30T20:32:37.019Z,50.84
2022-08-30T20:35:08.649Z,51.28
2022-08-30T20:37:40.268Z,51.47
2022-08-30T20:40:15.467Z,51.70
2022-08-30T20:42:47.496Z,52.04
2022-08-30T20:45:18.964Z,52.27
2022-08-30T20:47:51.616Z,51.97
2022-08-30T20:50:23.196Z,52.62
2022-08-30T20:52:55.529Z,52.37
2022-08-30T20:55:26.863Z,52.79
2022-08-30T20:57:58.558Z,53.15
2022-08-30T21:00:31.149Z,52.85
2022-08-30T21:03:02.545Z,53.54
2022-08-30T21:05:39.625Z,53.52
2022-08-30T21:08:11.035Z,53.81
2022-08-30T21:14:34.530Z,54.02
2022-08-30T21:17:05.928Z,54.19
2022-08-30T21:19:40.871Z,54.35
2022-08-30T21:26:04.096Z,54.80
2022-08-30T21:28:36.263Z,54.88
2022-08-30T21:31:11.320Z,55.15
2022-08-30T21:33:42.856Z,55.52
2022-08-30T21:36:33.767Z,55.86
2022-08-30T21:39:06.051Z,55.89
2022-08-30T21:41:38.210Z,56.03
2022-08-30T21:44:14.203Z,55.79
2022-08-30T21:46:46.852Z,56.29
2022-08-30T21:49:23.048Z,56.54
2022-08-30T21:51:55.275Z,56.59
2022-08-30T21:54:31.343Z,56.13
2022-08-30T21:57:04.959Z,56.52
2022-08-30T21:59:36.376Z,56.94
2022-08-30T22:02:07.733Z,56.90
2022-08-30T22:04:40.981Z,57.46
2022-08-30T22:07:12.315Z,57.60
2022-08-30T22:09:44.041Z,57.67
2022-08-30T22:12:15.768Z,57.98
2022-08-30T22:14:47.185Z,58.00
2022-08-30T22:17:19.087Z,58.36
2022-08-30T22:19:50.625Z,58.56
2022-08-30T22:22:22.069Z,58.93
2022-08-30T22:24:53.435Z,59.29
2022-08-30T22:27:24.757Z,59.07
2022-08-30T22:29:56.099Z,59.43
2022-08-30T22:32:28.555Z,59.39
2022-08-30T22:35:01.128Z,59.41
2022-08-30T22:37:33.943Z,59.94
2022-08-30T22:40:05.766Z,59.97
2022-08-30T22:42:37.426Z,59.98
2022-08-30T22:45:09.688Z,60.17
2022-08-30T22:47:41.565Z,60.64
2022-08-30T22:50:18.086Z,60.60
2022-08-30T22:52:49.409Z,60.76
2022-08-30T22:55:20.809Z,60.96
2022-08-30T22:57:52.393Z,60.96
2022-08-30T23:00:23.927Z,61.23
2022-08-30T23:02:56.982Z,61.09
2022-08-30T23:05:28.576Z,61.67
2022-08-30T23:07:59.951Z,61.99
2022-08-30T23:10:33.068Z,61.82
2022-08-30T23:13:04.541Z,61.88
2022-08-30T23:15:36.687Z,62.17
2022-08-30T23:18:08.138Z,62.03
2022-08-30T23:20:39.460Z,62.32
2022-08-30T23:23:11.083Z,62.35
2022-08-30T23:26:01.299Z,62.57
2022-08-30T23:28:51.386Z,62.47
2022-08-30T23:31:41.835Z,62.95
2022-08-30T23:34:31.935Z,62.82
2022-08-30T23:37:21.785Z,62.83
2022-08-30T23:40:12.679Z,62.92
2022-08-30T23:43:04.052Z,63.47
2022-08-30T23:45:54.378Z,63.23
2022-08-30T23:48:52.031Z,63.29
2022-08-30T23:51:42.539Z,63.64
2022-08-30T23:54:32.769Z,63.83
2022-08-30T23:57:23.813Z,63.88
